createdAt,value
2023-10-18T00:01:06.030Z,101158.61
2023-10-18T00:03:44.977Z,101155.98
2023-10-18T00:06:16.945Z,101160.25
2023-10-18T00:08:47.834Z,101162.66
2023-10-18T00:11:18.743Z,101160.94
2023-10-18T00:13:52.909Z,101153.48
2023-10-18T00:16:24.386Z,101149.97
2023-10-18T00:18:55.241Z,101148.66
2023-10-18T00:21:26.092Z,101144.64
2023-10-18T00:23:56.749Z,101139.39
2023-10-18T00:26:27.797Z,101139.07
2023-10-18T00:28:58.669Z,101137.35
2023-10-18T00:31:29.643Z,101137.51
2023-10-18T00:34:00.592Z,101136.21
2023-10-18T00:36:31.862Z,101135.02
2023-10-18T00:39:15.881Z,101135.71
2023-10-18T00:41:46.825Z,101136.00
2023-10-18T00:44:17.640Z,101131.52
2023-10-18T00:46:48.517Z,101128.58
2023-10-18T00:49:19.768Z,101127.79
2023-10-18T00:51:50.944Z,101129.65
2023-10-18T00:54:21.775Z,101129.34
2023-10-18T00:56:52.560Z,101123.57
2023-10-18T00:59:23.681Z,101121.78
2023-10-18T01:02:04.505Z,101115.66
2023-10-18T01:04:36.223Z,101113.42
2023-10-18T01:07:13.467Z,101114.17
2023-10-18T01:09:50.552Z,101115.67
2023-10-18T01:12:21.917Z,101115.31
2023-10-18T01:14:52.802Z,101111.01
2023-10-18T01:17:24.890Z,101117.33
2023-10-18T01:19:56.133Z,101119.33
2023-10-18T01:22:26.998Z,101122.83
2023-10-18T01:24:59.292Z,101122.20
2023-10-18T01:27:30.221Z,101121.19
2023-10-18T01:30:00.961Z,101119.75
2023-10-18T01:32:31.836Z,101119.31
2023-10-18T01:35:02.692Z,101119.90
2023-10-18T01:37:33.776Z,101118.92
2023-10-18T01:40:22.151Z,101119.17
2023-10-18T01:42:57.367Z,101124.42
2023-10-18T01:45:31.615Z,101126.70
2023-10-18T01:48:05.726Z,101127.94
2023-10-18T01:50:36.746Z,101128.03
2023-10-18T01:53:17.171Z,101131.10
2023-10-18T01:55:55.017Z,101129.36
2023-10-18T01:58:26.002Z,101130.75
2023-10-18T02:00:58.381Z,101126.79
2023-10-18T02:03:30.242Z,101121.70
2023-10-18T02:06:01.179Z,101123.56
2023-10-18T02:08:32.036Z,101125.88
2023-10-18T02:11:07.103Z,101127.95
2023-10-18T02:13:38.813Z,101129.73
2023-10-18T02:16:16.272Z,101133.63
2023-10-18T02:18:49.222Z,101136.58
2023-10-18T02:21:23.090Z,101137.99
2023-10-18T02:23:56.872Z,101140.70
2023-10-18T02:26:33.561Z,101144.27
2023-10-18T02:29:13.718Z,101142.68
2023-10-18T02:31:44.775Z,101141.32
2023-10-18T02:34:29.086Z,101141.61
2023-10-18T02:37:02.279Z,101144.80
2023-10-18T02:39:36.354Z,101143.14
2023-10-18T02:42:08.347Z,101139.45
2023-10-18T02:44:39.082Z,101142.98
2023-10-18T02:47:17.938Z,101144.97
2023-10-18T02:49:52.790Z,101148.27
2023-10-18T02:52:23.682Z,101145.19
2023-10-18T02:54:58.443Z,101147.25
2023-10-18T02:57:29.438Z,101145.71
2023-10-18T03:00:11.412Z,101141.34
2023-10-18T03:02:42.320Z,101134.20
2023-10-18T03:05:13.361Z,101133.27
2023-10-18T03:07:44.124Z,101138.45
2023-10-18T03:10:20.726Z,101137.33
2023-10-18T03:12:53.893Z,101141.70
2023-10-18T03:15:27.320Z,101142.19
2023-10-18T03:17:58.619Z,101141.20
2023-10-18T03:20:30.143Z,101143.08
2023-10-18T03:23:03.922Z,101142.96
2023-10-18T03:25:36.202Z,101142.08
2023-10-18T03:28:14.263Z,101143.87
2023-10-18T03:30:47.965Z,101146.06
2023-10-18T03:33:20.936Z,101147.45
2023-10-18T03:36:20.196Z,101146.47
2023-10-18T03:38:56.368Z,101148.34
2023-10-18T03:41:27.630Z,101149.02
2023-10-18T03:44:05.063Z,101151.43
2023-10-18T03:46:49.649Z,101154.27
2023-10-18T03:49:29.171Z,101156.53
2023-10-18T03:52:06.110Z,101156.05
2023-10-18T03:54:46.835Z,101155.23
2023-10-18T03:57:19.779Z,101151.34
2023-10-18T03:59:53.593Z,101153.55
2023-10-18T04:02:28.775Z,101157.60
2023-10-18T04:05:14.755Z,101153.63
2023-10-18T04:07:45.725Z,101148.46
2023-10-18T04:10:19.461Z,101147.23
2023-10-18T04:12:51.458Z,101145.23
2023-10-18T04:15:22.977Z,101144.84
2023-10-18T04:18:05.344Z,101143.41
2023-10-18T04:20:36.191Z,101143.77
2023-10-18T04:23:13.988Z,101141.28
2023-10-18T04:25:48.814Z,101141.73
2023-10-18T04:28:20.126Z,101140.04
2023-10-18T04:30:53.604Z,101137.28
2023-10-18T04:33:29.648Z,101131.97
2023-10-18T04:36:02.044Z,101124.67
2023-10-18T04:38:38.223Z,101124.69
2023-10-18T04:41:09.661Z,101122.98
2023-10-18T04:43:43.602Z,101126.65
2023-10-18T04:46:16.980Z,101130.96
2023-10-18T04:49:17.721Z,101137.60
2023-10-18T04:51:50.120Z,101143.04
2023-10-18T04:54:36.384Z,101149.17
2023-10-18T04:57:11.989Z,101154.56
2023-10-18T04:59:47.666Z,101161.11
2023-10-18T05:02:27.911Z,101164.16
2023-10-18T05:04:59.029Z,101164.11
2023-10-18T05:07:43.315Z,101168.16
2023-10-18T05:10:17.871Z,101171.38
2023-10-18T05:13:02.532Z,101173.52
2023-10-18T05:15:34.894Z,101176.30
2023-10-18T05:18:07.360Z,101176.52
2023-10-18T05:20:58.614Z,101176.54
2023-10-18T05:23:34.191Z,101175.20
2023-10-18T05:26:18.742Z,101171.70
2023-10-18T05:28:51.029Z,101175.72
2023-10-18T05:31:45.734Z,101176.02
2023-10-18T05:34:23.709Z,101175.63
2023-10-18T05:36:57.424Z,101176.55
2023-10-18T05:39:49.980Z,101178.39
2023-10-18T05:42:23.008Z,101184.25
2023-10-18T05:44:53.901Z,101186.16
2023-10-18T05:47:26.882Z,101188.62
2023-10-18T05:50:00.855Z,101189.58
2023-10-18T05:52:38.908Z,101194.32
2023-10-18T05:55:13.493Z,101194.33
2023-10-18T05:57:47.480Z,101193.54
2023-10-18T06:00:19.927Z,101196.52
2023-10-18T06:02:53.963Z,101193.60
2023-10-18T06:05:25.152Z,101195.15
2023-10-18T06:07:56.025Z,101187.27
2023-10-18T06:10:27.756Z,101180.33
2023-10-18T06:13:06.681Z,101177.23
2023-10-18T06:15:40.107Z,101178.77
2023-10-18T06:18:18.660Z,101179.82
2023-10-18T06:20:53.749Z,101181.41
2023-10-18T06:23:41.264Z,101181.63
2023-10-18T06:26:25.874Z,101177.90
2023-10-18T06:29:01.940Z,101178.43
2023-10-18T06:31:33.302Z,101181.48
2023-10-18T06:34:06.043Z,101185.86
2023-10-18T06:36:42.620Z,101179.89
2023-10-18T06:39:26.729Z,101181.58
2023-10-18T06:42:00.436Z,101181.56
2023-10-18T06:44:32.723Z,101183.61
2023-10-18T06:47:07.830Z,101182.34
2023-10-18T06:49:41.693Z,101191.38
2023-10-18T06:52:17.848Z,101194.39
2023-10-18T06:54:55.535Z,101197.51
2023-10-18T06:57:36.850Z,101202.59
2023-10-18T07:00:13.857Z,101199.06
2023-10-18T07:02:46.167Z,101202.02
2023-10-18T07:05:17.583Z,101205.42
2023-10-18T07:07:48.429Z,101206.39
2023-10-18T07:10:42.402Z,101205.93
2023-10-18T07:13:13.654Z,101201.77
2023-10-18T07:15:44.558Z,101204.34
2023-10-18T07:18:15.588Z,101214.79
2023-10-18T07:20:50.452Z,101218.59
2023-10-18T07:23:22.856Z,101218.63
2023-10-18T07:26:08.453Z,101215.00
2023-10-18T07:28:41.771Z,101209.36
2023-10-18T07:31:12.781Z,101206.27
2023-10-18T07:33:46.179Z,101203.73
2023-10-18T07:36:19.391Z,101199.13
2023-10-18T07:38:50.878Z,101197.66
2023-10-18T07:41:27.841Z,101192.81
2023-10-18T07:44:01.676Z,101195.70
2023-10-18T07:46:35.981Z,101199.02
2023-10-18T07:49:12.712Z,101195.84
2023-10-18T07:51:51.474Z,101191.73
2023-10-18T07:54:26.213Z,101194.69
2023-10-18T07:56:57.397Z,101189.73
2023-10-18T07:59:32.186Z,101190.52
2023-10-18T08:02:14.507Z,101185.78
2023-10-18T08:04:46.500Z,101187.61
2023-10-18T08:07:21.341Z,101187.42
2023-10-18T08:09:53.016Z,101189.34
2023-10-18T08:12:31.993Z,101187.83
2023-10-18T08:15:15.064Z,101186.66
2023-10-18T08:17:47.936Z,101185.19
2023-10-18T08:20:36.284Z,101182.27
2023-10-18T08:23:20.226Z,101184.08
2023-10-18T08:26:04.859Z,101180.19
2023-10-18T08:28:42.942Z,101180.11
2023-10-18T08:31:28.496Z,101178.53
2023-10-18T08:33:59.537Z,101176.29
2023-10-18T08:36:33.135Z,101176.38
2023-10-18T08:39:04.420Z,101179.88
2023-10-18T08:41:38.312Z,101184.40
2023-10-18T08:44:17.514Z,101182.14
2023-10-18T08:46:56.551Z,101178.36
2023-10-18T08:49:33.805Z,101174.58
2023-10-18T08:52:09.862Z,101174.07
2023-10-18T08:54:42.471Z,101169.11
2023-10-18T08:57:13.344Z,101166.02
2023-10-18T08:59:49.654Z,101162.02
2023-10-18T09:02:22.784Z,101164.95
2023-10-18T09:04:57.305Z,101161.12
2023-10-18T09:07:42.266Z,101160.52
2023-10-18T09:10:35.046Z,101161.18
2023-10-18T09:13:24.388Z,101157.19
2023-10-18T09:16:03.052Z,101154.75
2023-10-18T09:18:35.685Z,101145.51
2023-10-18T09:21:19.140Z,101147.55
2023-10-18T09:23:51.160Z,101142.38
2023-10-18T09:26:27.733Z,101140.71
2023-10-18T09:29:01.129Z,101128.29
2023-10-18T09:31:32.433Z,101129.36
2023-10-18T09:34:09.327Z,101134.66
2023-10-18T09:36:41.340Z,101132.97
2023-10-18T09:39:12.026Z,101134.70
2023-10-18T09:41:42.853Z,101132.69
2023-10-18T09:44:15.810Z,101134.38
2023-10-18T09:46:49.597Z,101138.71
2023-10-18T09:49:25.448Z,101136.13
2023-10-18T09:51:56.659Z,101135.15
2023-10-18T09:54:27.841Z,101131.73
2023-10-18T09:57:00.531Z,101132.64
2023-10-18T09:59:33.321Z,101127.94
2023-10-18T10:02:09.986Z,101130.38
2023-10-18T10:04:44.259Z,101129.92
2023-10-18T10:07:38.605Z,101129.47
2023-10-18T10:10:11.110Z,101120.16
2023-10-18T10:12:43.868Z,101117.92
2023-10-18T10:15:18.990Z,101110.68
2023-10-18T10:17:56.890Z,101114.58
2023-10-18T10:20:33.370Z,101116.80
2023-10-18T10:23:08.105Z,101119.77
2023-10-18T10:25:47.317Z,101116.83
2023-10-18T10:28:55.088Z,101115.34
2023-10-18T10:31:26.027Z,101115.56
2023-10-18T10:34:07.865Z,101111.24
2023-10-18T10:36:40.631Z,101105.16
2023-10-18T10:39:14.211Z,101098.77
2023-10-18T10:41:44.998Z,101092.35
2023-10-18T10:44:24.311Z,101086.97
2023-10-18T10:46:55.587Z,101084.56
2023-10-18T10:49:59.661Z,101076.41
2023-10-18T10:52:34.238Z,101077.60
2023-10-18T10:55:06.484Z,101077.57
2023-10-18T10:57:45.095Z,101075.41
2023-10-18T11:00:35.710Z,101075.86
2023-10-18T11:03:17.459Z,101065.88
2023-10-18T11:05:52.552Z,101058.19
2023-10-18T11:08:23.429Z,101047.48
2023-10-18T11:10:55.905Z,101041.12
2023-10-18T11:13:26.680Z,101038.98
2023-10-18T11:15:58.372Z,101029.38
2023-10-18T11:18:36.005Z,101031.41
2023-10-18T11:21:20.301Z,101022.30
2023-10-18T11:23:58.640Z,101016.48
2023-10-18T11:26:29.649Z,101017.73
2023-10-18T11:29:00.964Z,101022.84
2023-10-18T11:31:31.997Z,101024.77
2023-10-18T11:34:07.999Z,101029.50
2023-10-18T11:36:40.606Z,101027.17
2023-10-18T11:39:22.535Z,101024.68
2023-10-18T11:41:58.172Z,101014.31
2023-10-18T11:44:32.790Z,101018.98
2023-10-18T11:47:07.016Z,101018.48
2023-10-18T11:49:38.379Z,101017.52
2023-10-18T11:52:11.652Z,101013.15
2023-10-18T11:54:44.942Z,101013.08
2023-10-18T11:57:31.089Z,101015.27
2023-10-18T12:00:16.049Z,101015.06
2023-10-18T12:02:46.878Z,101017.46
2023-10-18T12:05:22.163Z,101014.76
2023-10-18T12:07:56.177Z,101012.27
2023-10-18T12:10:36.155Z,101008.52
2023-10-18T12:13:13.463Z,101006.05
2023-10-18T12:15:44.378Z,100997.60
2023-10-18T12:18:15.710Z,100994.65
2023-10-18T12:20:46.586Z,101002.36
2023-10-18T12:23:20.256Z,101006.10
2023-10-18T12:25:51.345Z,101003.21
2023-10-18T12:28:29.405Z,101003.94
2023-10-18T12:31:02.494Z,101002.05
2023-10-18T12:33:35.589Z,100996.80
2023-10-18T12:36:08.910Z,100994.23
2023-10-18T12:38:40.634Z,100989.67
2023-10-18T12:41:19.757Z,100991.43
2023-10-18T12:43:53.463Z,100986.38
2023-10-18T12:46:24.626Z,100983.52
2023-10-18T12:48:57.669Z,100977.08
2023-10-18T12:51:36.357Z,100973.10
2023-10-18T12:54:10.510Z,100967.78
2023-10-18T12:56:45.187Z,100968.20
2023-10-18T12:59:25.991Z,100968.36
2023-10-18T13:02:01.354Z,100968.95
2023-10-18T13:04:32.259Z,100967.02
2023-10-18T13:07:20.619Z,100969.53
2023-10-18T13:09:53.476Z,100968.17
2023-10-18T13:12:25.500Z,100963.66
2023-10-18T13:14:58.639Z,100962.98
2023-10-18T13:17:33.682Z,100961.04
2023-10-18T13:20:07.715Z,100958.46
2023-10-18T13:22:38.442Z,100953.90
2023-10-18T13:25:10.566Z,100947.83
2023-10-18T13:27:42.310Z,100941.93
2023-10-18T13:30:33.298Z,100941.97
2023-10-18T13:33:12.584Z,100939.86
2023-10-18T13:35:45.155Z,100935.69
2023-10-18T13:38:17.187Z,100933.98
2023-10-18T13:40:48.154Z,100931.67
2023-10-18T13:43:20.767Z,100927.92
2023-10-18T13:45:59.767Z,100924.13
2023-10-18T13:48:31.415Z,100915.95
2023-10-18T13:51:03.679Z,100911.27
2023-10-18T13:53:34.595Z,100910.86
2023-10-18T13:56:05.780Z,100908.34
2023-10-18T13:58:37.148Z,100901.91
2023-10-18T14:01:08.399Z,100902.41
2023-10-18T14:03:44.155Z,100901.44
2023-10-18T14:06:16.162Z,100900.08
2023-10-18T14:08:47.213Z,100900.66
2023-10-18T14:11:19.170Z,100901.39
2023-10-18T14:13:50.491Z,100897.14
2023-10-18T14:16:22.167Z,100896.34
2023-10-18T14:18:53.367Z,100897.73
2023-10-18T14:21:26.003Z,100892.55
2023-10-18T14:24:01.209Z,100896.00
2023-10-18T14:26:32.191Z,100893.59
2023-10-18T14:29:04.389Z,100892.85
2023-10-18T14:31:37.268Z,100893.59
2023-10-18T14:34:08.660Z,100893.52
2023-10-18T14:36:53.388Z,100894.83
2023-10-18T14:39:37.815Z,100891.09
2023-10-18T14:42:10.132Z,100891.15
2023-10-18T14:44:40.874Z,100891.83
2023-10-18T14:47:13.458Z,100892.84
2023-10-18T14:49:45.064Z,100891.70
2023-10-18T14:52:20.640Z,100888.63
2023-10-18T14:54:51.410Z,100890.33
2023-10-18T14:57:22.312Z,100887.95
2023-10-18T14:59:53.468Z,100890.34
2023-10-18T15:02:24.382Z,100887.36
2023-10-18T15:04:55.172Z,100887.94
2023-10-18T15:07:26.040Z,100885.84
2023-10-18T15:09:57.257Z,100888.59
2023-10-18T15:12:27.969Z,100887.48
2023-10-18T15:14:58.713Z,100886.86
2023-10-18T15:17:29.913Z,100887.86
2023-10-18T15:20:01.053Z,100888.33
2023-10-18T15:22:35.194Z,100891.60
2023-10-18T15:25:06.630Z,100894.39
2023-10-18T15:27:37.463Z,100895.13
2023-10-18T15:30:10.496Z,100899.23
2023-10-18T15:32:41.385Z,100904.03
2023-10-18T15:35:13.460Z,100905.98
2023-10-18T15:37:44.456Z,100907.55
2023-10-18T15:40:16.742Z,100912.01
2023-10-18T15:42:47.714Z,100911.88
2023-10-18T15:45:19.250Z,100912.02
2023-10-18T15:47:50.142Z,100914.36
2023-10-18T15:50:21.186Z,100913.20
2023-10-18T15:52:52.214Z,100915.91
2023-10-18T15:55:22.996Z,100915.70
2023-10-18T15:57:55.680Z,100917.14
2023-10-18T16:00:29.219Z,100919.11
2023-10-18T16:03:00.754Z,100923.36
2023-10-18T16:05:32.211Z,100922.09
2023-10-18T16:08:05.021Z,100923.77
2023-10-18T16:10:36.214Z,100921.16
2023-10-18T16:13:08.995Z,100918.12
2023-10-18T16:15:40.734Z,100914.42
2023-10-18T16:18:11.944Z,100917.06
2023-10-18T16:20:42.855Z,100917.97
2023-10-18T16:23:13.757Z,100920.11
2023-10-18T16:25:44.755Z,100920.88
2023-10-18T16:28:15.645Z,100921.77
2023-10-18T16:30:47.186Z,100922.21
2023-10-18T16:33:22.689Z,100924.29
2023-10-18T16:36:02.765Z,100923.79
2023-10-18T16:38:34.087Z,100922.30
2023-10-18T16:41:06.480Z,100919.23
2023-10-18T16:43:38.483Z,100918.82
2023-10-18T16:46:12.643Z,100918.73
2023-10-18T16:48:44.628Z,100913.54
2023-10-18T16:51:16.459Z,100915.25
2023-10-18T16:53:50.862Z,100916.55
2023-10-18T16:56:23.053Z,100913.09
2023-10-18T16:58:55.073Z,100911.94
2023-10-18T17:01:28.790Z,100908.15
2023-10-18T17:04:00.937Z,100906.88
2023-10-18T17:06:31.923Z,100907.79
2023-10-18T17:09:03.137Z,100902.20
2023-10-18T17:11:36.845Z,100898.08
2023-10-18T17:14:08.315Z,100893.75
2023-10-18T17:16:39.246Z,100894.16
2023-10-18T17:19:12.967Z,100896.16
2023-10-18T17:21:45.404Z,100899.92
2023-10-18T17:24:16.604Z,100900.30
2023-10-18T17:26:48.538Z,100900.59
2023-10-18T17:29:19.514Z,100900.48
2023-10-18T17:31:50.993Z,100902.34
2023-10-18T17:34:22.235Z,100900.63
2023-10-18T17:36:57.699Z,100900.15
2023-10-18T17:39:28.974Z,100898.14
2023-10-18T17:41:59.927Z,100898.64
2023-10-18T17:44:30.902Z,100900.45
2023-10-18T17:47:03.800Z,100902.31
2023-10-18T17:49:35.047Z,100903.55
2023-10-18T17:52:06.247Z,100905.89
2023-10-18T17:54:40.785Z,100903.98
2023-10-18T17:57:11.778Z,100906.82
2023-10-18T17:59:42.899Z,100908.83
2023-10-18T18:02:14.126Z,100908.03
2023-10-18T18:04:46.014Z,100909.26
2023-10-18T18:07:21.418Z,100911.88
2023-10-18T18:09:54.442Z,100910.45
2023-10-18T18:12:28.588Z,100913.05
2023-10-18T18:15:04.349Z,100910.92
2023-10-18T18:17:35.458Z,100917.15
2023-10-18T18:20:11.794Z,100917.03
2023-10-18T18:22:44.652Z,100920.92
2023-10-18T18:25:17.189Z,100920.23
2023-10-18T18:27:49.357Z,100918.00
2023-10-18T18:30:20.268Z,100920.21
2023-10-18T18:32:51.753Z,100921.35
2023-10-18T18:35:24.642Z,100920.76
2023-10-18T18:37:55.519Z,100921.10
2023-10-18T18:40:27.338Z,100922.76
2023-10-18T18:42:58.246Z,100920.29
2023-10-18T18:45:31.918Z,100921.71
2023-10-18T18:48:05.415Z,100928.47
2023-10-18T18:50:37.446Z,100926.90
2023-10-18T18:53:10.297Z,100930.88
2023-10-18T18:55:41.327Z,100933.61
2023-10-18T18:58:12.077Z,100936.15
2023-10-18T19:00:44.240Z,100940.55
2023-10-18T19:03:15.696Z,100943.54
2023-10-18T19:05:48.879Z,100949.27
2023-10-18T19:08:22.371Z,100951.46
2023-10-18T19:10:55.872Z,100949.38
2023-10-18T19:13:27.116Z,100948.08
2023-10-18T19:16:09.972Z,100948.52
2023-10-18T19:18:40.952Z,100945.85
2023-10-18T19:21:11.965Z,100945.46
2023-10-18T19:23:42.816Z,100947.42
2023-10-18T19:26:14.256Z,100944.22
2023-10-18T19:28:46.057Z,100944.34
2023-10-18T19:31:18.348Z,100943.65
2023-10-18T19:33:50.519Z,100943.08
2023-10-18T19:36:21.468Z,100943.44
2023-10-18T19:38:52.743Z,100945.09
2023-10-18T19:41:23.731Z,100941.55
2023-10-18T19:43:54.596Z,100938.54
2023-10-18T19:46:25.621Z,100935.15
2023-10-18T19:48:56.530Z,100934.83
2023-10-18T19:51:27.590Z,100935.44
2023-10-18T19:53:58.523Z,100933.70
2023-10-18T19:56:29.911Z,100930.03
2023-10-18T19:59:01.795Z,100924.92
2023-10-18T20:01:32.706Z,100921.44
2023-10-18T20:04:05.860Z,100923.12
2023-10-18T20:06:38.392Z,100918.27
2023-10-18T20:09:10.095Z,100916.13
2023-10-18T20:11:41.180Z,100918.02
2023-10-18T20:14:12.489Z,100917.65
2023-10-18T20:16:43.550Z,100919.62
2023-10-18T20:19:15.386Z,100915.73
2023-10-18T20:21:46.980Z,100913.77
2023-10-18T20:24:17.875Z,100912.21
2023-10-18T20:26:48.758Z,100911.16
2023-10-18T20:29:20.220Z,100910.06
2023-10-18T20:31:52.273Z,100909.85
2023-10-18T20:34:23.498Z,100908.29
2023-10-18T20:36:55.059Z,100910.30
2023-10-18T20:39:28.220Z,100909.94
2023-10-18T20:42:01.958Z,100905.20
2023-10-18T20:44:34.685Z,100902.81
2023-10-18T20:47:08.613Z,100905.33
2023-10-18T20:49:41.594Z,100901.92
2023-10-18T20:52:14.520Z,100901.88
2023-10-18T20:54:47.006Z,100899.67
2023-10-18T20:57:22.027Z,100906.96
2023-10-18T20:59:52.937Z,100907.40
2023-10-18T21:02:25.487Z,100906.05
2023-10-18T21:04:59.207Z,100904.09
2023-10-18T21:07:32.172Z,100903.84
2023-10-18T21:10:03.187Z,100905.55
2023-10-18T21:12:37.800Z,100902.30
2023-10-18T21:15:12.567Z,100904.05
2023-10-18T21:17:43.605Z,100906.49
2023-10-18T21:20:15.204Z,100904.52
2023-10-18T21:22:47.161Z,100906.51
2023-10-18T21:25:18.702Z,100910.27
2023-10-18T21:27:49.788Z,100911.91
2023-10-18T21:30:20.650Z,100910.01
2023-10-18T21:32:52.546Z,100909.41
2023-10-18T21:35:24.167Z,100907.45
2023-10-18T21:37:55.090Z,100908.14
2023-10-18T21:40:25.992Z,100906.11
2023-10-18T21:42:56.764Z,100900.40
2023-10-18T21:45:27.762Z,100903.31
2023-10-18T21:47:59.137Z,100899.02
2023-10-18T21:50:30.051Z,100899.65
2023-10-18T21:53:02.140Z,100900.08
2023-10-18T21:55:32.870Z,100904.11
2023-10-18T21:58:03.660Z,100895.95
2023-10-18T22:00:42.360Z,100897.79
2023-10-18T22:03:13.288Z,100894.02
2023-10-18T22:05:47.126Z,100894.23
2023-10-18T22:08:17.802Z,100891.92
2023-10-18T22:10:49.920Z,100893.67
2023-10-18T22:13:25.386Z,100892.14
2023-10-18T22:16:00.841Z,100889.27
2023-10-18T22:18:38.925Z,100887.09
2023-10-18T22:21:09.823Z,100886.34
2023-10-18T22:23:41.813Z,100887.28
2023-10-18T22:26:15.961Z,100889.55
2023-10-18T22:28:47.212Z,100886.06
2023-10-18T22:31:18.143Z,100881.03
2023-10-18T22:33:49.088Z,100883.77
2023-10-18T22:36:22.632Z,100883.69
2023-10-18T22:38:53.517Z,100884.06
2023-10-18T22:41:33.690Z,100883.18
2023-10-18T22:44:10.387Z,100884.30
2023-10-18T22:46:49.439Z,100884.27
2023-10-18T22:49:25.991Z,100884.84
2023-10-18T22:52:00.293Z,100882.41
2023-10-18T22:54:43.706Z,100882.16
2023-10-18T22:57:26.452Z,100882.41
2023-10-18T22:59:58.168Z,100881.16
2023-10-18T23:02:30.948Z,100881.48
2023-10-18T23:05:02.421Z,100879.98
2023-10-18T23:07:35.121Z,100884.56
2023-10-18T23:10:10.324Z,100883.50
2023-10-18T23:12:44.788Z,100886.66
2023-10-18T23:15:39.380Z,100890.99
2023-10-18T23:18:17.399Z,100881.83
2023-10-18T23:21:11.695Z,100880.58
2023-10-18T23:23:45.327Z,100883.53
2023-10-18T23:26:33.600Z,100882.84
2023-10-18T23:29:07.441Z,100880.73
2023-10-18T23:31:45.940Z,100883.97
2023-10-18T23:34:28.713Z,100890.52
2023-10-18T23:37:03.916Z,100891.18
2023-10-18T23:39:39.378Z,100884.97
2023-10-18T23:42:15.519Z,100880.35
2023-10-18T23:44:57.727Z,100875.81
2023-10-18T23:47:51.282Z,100876.13
2023-10-18T23:50:24.854Z,100877.14
2023-10-18T23:52:58.761Z,100875.91
2023-10-18T23:55:38.409Z,100874.57
2023-10-18T23:58:15.195Z,100874.05
